Time;durP1;ratioP1;P1;durP2;ratioP2;P2;SDS_P1;SDS_P2;PMS_P1;PMS_P2;Temp;Humidity;BMP_temperature;BMP_pressure;BME280_temperature;BME280_humidity;BME280_pressure;Samples;Min_cycle;Max_cycle;Signal;HPM_P1;HPM_P2
2023/01/01 00:21:13;;;;;;;6.80;2.20;;;17.40;99.90;;;;;;4870536;29;20231;-76
2023/01/01 00:23:44;;;;;;;4.00;2.47;;;17.40;99.90;;;;;;4930042;28;20204;-75
2023/01/01 00:26:11;;;;;;;3.25;2.20;;;17.40;99.90;;;;;;4959746;28;20203;-76
2023/01/01 00:28:37;;;;;;;6.13;2.50;;;17.30;99.90;;;;;;4955337;28;20180;-75
2023/01/01 00:31:15;;;;;;;5.47;2.53;;;17.30;99.90;;;;;;4966639;28;20180;-77
2023/01/01 00:33:43;;;;;;;6.95;3.17;;;17.30;99.90;;;;;;4960869;28;20203;-76
2023/01/01 00:36:16;;;;;;;5.28;2.58;;;17.30;99.90;;;;;;4957949;28;20286;-75
2023/01/01 00:38:45;;;;;;;3.75;2.50;;;17.30;99.90;;;;;;4950219;28;20184;-75
2023/01/01 00:41:15;;;;;;;4.00;2.40;;;17.30;99.90;;;;;;4955360;29;20255;-76
2023/01/01 00:43:43;;;;;;;7.22;2.90;;;17.30;99.90;;;;;;4954222;28;20184;-74
2023/01/01 00:46:10;;;;;;;3.63;2.53;;;17.30;99.90;;;;;;4957348;28;20457;-74
2023/01/01 00:48:36;;;;;;;3.95;2.00;;;17.30;99.90;;;;;;4959874;28;20222;-74
2023/01/01 00:51:02;;;;;;;4.95;1.90;;;17.30;99.90;;;;;;4962328;28;20187;-75
2023/01/01 00:53:28;;;;;;;4.13;2.00;;;17.30;99.90;;;;;;4963157;28;20286;-76
2023/01/01 00:55:55;;;;;;;2.95;2.05;;;17.30;99.90;;;;;;4960639;28;20319;-76
2023/01/01 00:58:22;;;;;;;7.47;1.85;;;17.30;99.90;;;;;;4960643;28;20172;-76
2023/01/01 01:00:48;;;;;;;5.25;1.70;;;17.30;99.90;;;;;;4960645;28;20168;-76
2023/01/01 01:03:26;;;;;;;3.15;1.73;;;17.30;99.90;;;;;;4977322;28;20231;-75
2023/01/01 01:06:03;;;;;;;2.28;1.58;;;17.30;99.90;;;;;;4959786;28;20204;-76
2023/01/01 01:08:34;;;;;;;2.88;1.48;;;17.30;99.90;;;;;;4960113;28;20234;-76
2023/01/01 01:11:22;;;;;;;3.50;1.88;;;17.30;99.90;;;;;;4960493;28;20230;-77
2023/01/01 01:13:54;;;;;;;4.32;1.40;;;17.30;99.90;;;;;;4960252;28;20415;-77
2023/01/01 01:16:25;;;;;;;3.15;1.65;;;17.30;99.90;;;;;;4960330;28;20276;-76
2023/01/01 01:18:55;;;;;;;2.20;1.30;;;17.30;99.90;;;;;;4960329;28;20251;-78
2023/01/01 01:21:22;;;;;;;2.90;1.60;;;17.30;99.90;;;;;;4958945;28;20196;-75
2023/01/01 01:23:49;;;;;;;2.33;1.48;;;17.30;99.90;;;;;;4978007;28;20215;-78
2023/01/01 01:26:18;;;;;;;3.38;1.50;;;17.30;99.90;;;;;;4985898;28;20175;-73
2023/01/01 01:28:44;;;;;;;1.85;1.30;;;17.30;99.90;;;;;;4984777;28;20170;-77
2023/01/01 01:31:15;;;;;;;3.25;1.60;;;17.30;99.90;;;;;;4978248;28;20189;-78
2023/01/01 01:33:47;;;;;;;2.30;1.63;;;17.30;99.90;;;;;;4986315;28;20187;-80
2023/01/01 01:36:16;;;;;;;2.63;1.52;;;17.30;99.90;;;;;;4964636;28;20282;-78
2023/01/01 01:38:45;;;;;;;3.55;1.35;;;17.30;99.90;;;;;;4960344;28;20172;-81
2023/01/01 01:41:18;;;;;;;2.75;1.40;;;17.30;99.90;;;;;;4945131;28;20176;-81
2023/01/01 01:43:59;;;;;;;3.88;1.35;;;17.30;99.90;;;;;;4944739;28;20177;-78
2023/01/01 01:46:31;;;;;;;3.83;1.40;;;17.30;99.90;;;;;;4972291;28;20223;-79
2023/01/01 01:49:03;;;;;;;2.50;1.63;;;17.30;99.90;;;;;;4957288;28;20187;-79
2023/01/01 01:51:40;;;;;;;2.85;1.70;;;17.30;99.90;;;;;;4939197;28;20246;-79
2023/01/01 01:54:17;;;;;;;3.35;1.60;;;17.30;99.90;;;;;;4959246;28;20226;-78
2023/01/01 01:56:53;;;;;;;2.35;1.40;;;17.30;99.90;;;;;;4954817;29;20230;-80
2023/01/01 01:59:21;;;;;;;2.50;1.70;;;17.30;99.90;;;;;;4953922;28;20180;-82
2023/01/01 02:01:47;;;;;;;4.43;1.90;;;17.20;99.90;;;;;;4959829;28;20176;-79
2023/01/01 02:04:12;;;;;;;3.88;1.50;;;17.20;99.90;;;;;;4959748;28;20200;-80
2023/01/01 02:06:39;;;;;;;2.15;1.50;;;17.20;99.90;;;;;;4976900;28;20218;-79
2023/01/01 02:09:09;;;;;;;2.42;1.60;;;17.20;99.90;;;;;;4979166;28;20175;-80
2023/01/01 02:11:37;;;;;;;5.30;1.80;;;17.20;99.90;;;;;;4970229;28;20196;-82
2023/01/01 02:14:08;;;;;;;2.15;1.30;;;17.20;99.90;;;;;;4965255;28;20184;-79
2023/01/01 02:16:54;;;;;;;2.75;1.50;;;17.20;99.90;;;;;;4961136;28;20208;-81
2023/01/01 02:19:25;;;;;;;3.08;1.60;;;17.20;99.90;;;;;;4962949;28;20186;-78
2023/01/01 02:22:09;;;;;;;3.15;1.60;;;17.20;99.90;;;;;;4968152;28;20263;-80
2023/01/01 02:25:18;;;;;;;3.35;1.50;;;17.20;99.90;;;;;;4978657;28;20200;-79
2023/01/01 02:27:56;;;;;;;4.10;1.70;;;17.20;99.90;;;;;;4918297;29;20196;-79
2023/01/01 02:30:26;;;;;;;3.78;1.50;;;17.20;99.90;;;;;;4959479;28;20203;-78
2023/01/01 02:33:17;;;;;;;2.90;1.52;;;17.10;99.90;;;;;;4964045;28;20176;-79
2023/01/01 02:35:48;;;;;;;1.83;1.30;;;17.10;99.90;;;;;;4942807;28;20188;-79
2023/01/01 02:38:25;;;;;;;2.13;1.10;;;17.10;99.90;;;;;;4966993;28;20172;-80
2023/01/01 02:41:11;;;;;;;3.08;1.63;;;17.10;99.90;;;;;;4961708;28;20206;-78
2023/01/01 02:43:38;;;;;;;3.15;1.33;;;17.10;99.90;;;;;;4959191;28;20202;-79
2023/01/01 02:46:09;;;;;;;2.17;1.30;;;17.10;99.90;;;;;;4964008;28;20297;-81
2023/01/01 02:48:50;;;;;;;1.92;1.33;;;17.10;99.90;;;;;;4968201;28;20175;-82
2023/01/01 02:51:22;;;;;;;2.22;1.20;;;17.10;99.90;;;;;;4972360;28;20187;-80
2023/01/01 02:54:20;;;;;;;3.65;1.33;;;17.10;99.90;;;;;;4978097;28;20179;-77
2023/01/01 02:56:48;;;;;;;3.45;1.52;;;17.00;99.90;;;;;;4946056;29;20221;-80
2023/01/01 03:02:44;;;;;;;4.43;1.30;;;17.00;99.90;;;;;;4988393;28;20198;-78
2023/01/01 03:05:24;;;;;;;2.92;1.60;;;17.00;99.90;;;;;;4965604;28;20188;-79
2023/01/01 03:08:04;;;;;;;1.67;1.20;;;17.00;99.90;;;;;;4965593;28;20172;-79
2023/01/01 03:10:43;;;;;;;2.75;1.10;;;17.00;99.90;;;;;;4965615;28;20204;-78
2023/01/01 03:13:32;;;;;;;2.63;1.30;;;17.00;99.90;;;;;;4965555;28;20270;-80
2023/01/01 03:16:08;;;;;;;2.92;1.35;;;17.00;99.90;;;;;;4965639;28;20195;-80
2023/01/01 03:19:09;;;;;;;2.20;1.30;;;17.00;99.90;;;;;;4961939;28;20187;-79
2023/01/01 03:21:44;;;;;;;2.50;1.20;;;17.00;99.90;;;;;;4945300;28;20278;-79
2023/01/01 03:24:26;;;;;;;2.47;1.08;;;17.00;99.90;;;;;;4961683;28;20239;-79
2023/01/01 03:26:59;;;;;;;2.08;1.20;;;17.00;99.90;;;;;;4963176;28;20258;-77
2023/01/01 03:29:30;;;;;;;2.20;1.20;;;17.00;99.90;;;;;;4978467;28;20206;-78
2023/01/01 03:32:03;;;;;;;2.10;1.02;;;16.90;99.90;;;;;;4961125;28;20180;-82
2023/01/01 03:34:37;;;;;;;2.13;1.10;;;16.90;99.90;;;;;;4962493;28;20184;-79
2023/01/01 03:37:11;;;;;;;2.40;1.25;;;17.00;99.90;;;;;;4960764;28;20207;-78
2023/01/01 03:39:50;;;;;;;3.55;1.60;;;17.00;99.90;;;;;;4963788;28;21506;-78
2023/01/01 03:42:40;;;;;;;2.53;1.30;;;16.90;99.90;;;;;;4974578;28;20232;-80
2023/01/01 03:45:19;;;;;;;2.63;1.25;;;16.90;99.90;;;;;;4970153;28;20449;-78
2023/01/01 03:47:48;;;;;;;3.28;1.63;;;16.90;99.90;;;;;;4965241;28;20263;-79
2023/01/01 03:50:16;;;;;;;3.13;1.60;;;16.90;99.90;;;;;;4951430;28;20184;-80
2023/01/01 03:52:57;;;;;;;2.72;1.38;;;16.90;99.90;;;;;;4960391;28;20203;-80
2023/01/01 03:55:42;;;;;;;1.70;1.40;;;16.90;99.90;;;;;;4959486;28;20261;-78
2023/01/01 03:58:46;;;;;;;1.95;1.33;;;16.90;99.90;;;;;;4979263;28;20176;-78
2023/01/01 04:01:31;;;;;;;1.88;1.20;;;16.90;99.90;;;;;;4960813;28;20199;-81
2023/01/01 04:04:02;;;;;;;2.10;1.23;;;16.90;99.90;;;;;;4946297;28;20184;-79
2023/01/01 04:06:27;;;;;;;3.20;1.27;;;16.90;99.90;;;;;;4946961;28;20181;-79
2023/01/01 04:08:57;;;;;;;3.97;1.58;;;16.90;99.90;;;;;;4957916;28;20202;-78
2023/01/01 04:14:12;;;;;;;3.47;1.30;;;16.90;99.90;;;;;;4987300;28;20195;-78
2023/01/01 04:16:43;;;;;;;4.15;1.20;;;16.80;99.90;;;;;;4962605;28;20207;-81
2023/01/01 04:19:08;;;;;;;1.70;1.13;;;16.80;99.90;;;;;;4960301;28;20320;-81
2023/01/01 04:21:34;;;;;;;3.08;1.20;;;16.80;99.90;;;;;;4957709;28;20259;-82
2023/01/01 04:24:00;;;;;;;2.80;1.38;;;16.80;99.90;;;;;;4939890;28;20253;-77
2023/01/01 04:26:26;;;;;;;2.15;1.20;;;16.80;99.90;;;;;;4965130;28;20188;-79
2023/01/01 04:28:52;;;;;;;2.10;1.00;;;16.80;99.90;;;;;;4969730;28;20298;-81
2023/01/01 04:31:17;;;;;;;1.40;1.10;;;16.80;99.90;;;;;;4960858;28;20180;-78
2023/01/01 04:33:45;;;;;;;5.45;1.23;;;16.70;99.90;;;;;;4965284;28;20243;-78
2023/01/01 04:36:10;;;;;;;3.80;1.30;;;16.80;99.90;;;;;;4958844;28;20209;-79
2023/01/01 04:38:39;;;;;;;1.58;1.05;;;16.70;99.90;;;;;;4952051;28;20217;-78
2023/01/01 04:41:04;;;;;;;2.53;1.05;;;16.70;99.90;;;;;;4957837;28;20204;-79
2023/01/01 04:43:33;;;;;;;2.72;1.30;;;16.70;99.90;;;;;;4960735;28;20227;-80
2023/01/01 04:46:00;;;;;;;2.92;1.25;;;16.70;99.90;;;;;;4973538;28;20169;-77
2023/01/01 04:48:29;;;;;;;1.48;1.20;;;16.70;99.90;;;;;;4957965;28;20265;-81
2023/01/01 04:51:02;;;;;;;1.90;1.20;;;16.70;99.90;;;;;;4961359;28;20179;-80
2023/01/01 04:53:32;;;;;;;2.70;1.40;;;16.70;99.90;;;;;;4963933;28;20246;-80
2023/01/01 04:56:07;;;;;;;2.05;1.15;;;16.70;99.90;;;;;;4961123;28;20319;-82
2023/01/01 04:58:38;;;;;;;4.22;1.30;;;16.70;99.90;;;;;;4946156;29;20184;-80
2023/01/01 05:01:21;;;;;;;2.83;1.30;;;16.70;99.90;;;;;;4941855;29;20201;-78
2023/01/01 05:03:49;;;;;;;2.22;1.30;;;16.70;99.90;;;;;;4959731;28;20432;-81
2023/01/01 05:06:17;;;;;;;3.50;1.27;;;16.70;99.90;;;;;;4960818;28;20187;-83
2023/01/01 05:08:45;;;;;;;1.65;1.17;;;16.70;99.90;;;;;;4960694;28;20200;-82
2023/01/01 05:11:17;;;;;;;3.58;1.10;;;16.70;99.90;;;;;;4960500;28;20239;-80
2023/01/01 05:13:47;;;;;;;2.05;1.10;;;16.70;99.90;;;;;;4960836;28;20207;-80
2023/01/01 05:16:17;;;;;;;2.08;1.20;;;16.60;99.90;;;;;;4960673;28;20291;-82
2023/01/01 05:18:43;;;;;;;2.05;1.20;;;16.60;99.90;;;;;;4960452;28;20168;-81
2023/01/01 05:21:33;;;;;;;2.03;1.10;;;16.60;99.90;;;;;;4957429;28;20196;-80
2023/01/01 05:24:01;;;;;;;1.67;1.10;;;16.60;99.90;;;;;;4958968;28;20191;-80
2023/01/01 05:26:30;;;;;;;2.75;1.40;;;16.60;99.90;;;;;;4953703;28;20180;-79
2023/01/01 05:28:57;;;;;;;1.33;0.90;;;16.50;99.90;;;;;;4961804;28;20175;-81
2023/01/01 05:31:26;;;;;;;5.13;1.30;;;16.60;99.90;;;;;;4957361;28;20172;-81
2023/01/01 05:33:56;;;;;;;3.53;1.20;;;16.60;99.90;;;;;;4968224;28;20291;-80
2023/01/01 05:36:44;;;;;;;2.78;1.20;;;16.60;99.90;;;;;;4959239;28;20234;-80
2023/01/01 05:39:11;;;;;;;1.60;1.02;;;16.60;99.90;;;;;;4946848;28;20255;-80
2023/01/01 05:41:39;;;;;;;3.05;1.15;;;16.60;99.90;;;;;;4961413;28;22064;-83
2023/01/01 05:44:10;;;;;;;2.78;1.38;;;16.60;99.90;;;;;;4958460;28;20180;-80
2023/01/01 05:46:41;;;;;;;1.60;1.17;;;16.60;99.90;;;;;;4960695;28;20333;-80
2023/01/01 05:49:10;;;;;;;2.83;1.35;;;16.50;99.90;;;;;;4956271;28;20199;-81
2023/01/01 05:51:40;;;;;;;1.95;1.13;;;16.60;99.90;;;;;;4957604;28;20195;-81
2023/01/01 05:54:09;;;;;;;1.83;1.30;;;16.60;99.90;;;;;;4946256;29;20227;-82
2023/01/01 05:56:35;;;;;;;2.45;1.17;;;16.60;99.90;;;;;;4956359;28;20203;-81
2023/01/01 05:59:03;;;;;;;2.30;1.10;;;16.50;99.90;;;;;;4959281;28;20176;-80
2023/01/01 06:01:30;;;;;;;4.45;1.02;;;16.50;99.90;;;;;;4954124;28;20181;-82
2023/01/01 06:03:59;;;;;;;2.85;1.27;;;16.60;99.90;;;;;;4953424;28;20274;-80
2023/01/01 06:06:31;;;;;;;2.30;1.30;;;16.50;99.90;;;;;;4956366;28;20207;-83
2023/01/01 06:09:00;;;;;;;1.90;1.00;;;16.50;99.90;;;;;;4963133;28;20180;-79
2023/01/01 06:11:26;;;;;;;2.38;1.33;;;16.60;99.90;;;;;;4962225;28;20211;-80
2023/01/01 06:13:56;;;;;;;3.70;1.48;;;16.50;99.90;;;;;;4966370;28;20191;-75
2023/01/01 06:16:26;;;;;;;1.67;1.20;;;16.50;99.90;;;;;;4994331;28;20270;-73
2023/01/01 06:18:51;;;;;;;4.78;1.45;;;16.60;99.90;;;;;;4997495;28;20172;-75
2023/01/01 06:21:24;;;;;;;3.13;1.52;;;16.50;99.90;;;;;;4973376;28;20207;-81
2023/01/01 06:23:50;;;;;;;2.45;1.20;;;16.60;99.90;;;;;;4962469;28;20196;-78
2023/01/01 06:26:17;;;;;;;2.38;1.02;;;16.60;99.90;;;;;;4960657;28;20196;-83
2023/01/01 06:28:46;;;;;;;3.22;1.42;;;16.60;99.90;;;;;;4966587;28;20187;-80
2023/01/01 06:31:16;;;;;;;2.38;1.10;;;16.60;99.90;;;;;;4958382;28;20183;-80
2023/01/01 06:33:42;;;;;;;1.90;1.10;;;16.60;99.90;;;;;;4969667;28;20197;-83
2023/01/01 06:36:10;;;;;;;2.60;1.42;;;16.60;99.90;;;;;;4963928;28;20290;-81
2023/01/01 06:38:39;;;;;;;3.70;1.40;;;16.60;99.90;;;;;;4956274;28;20191;-81
2023/01/01 06:41:07;;;;;;;2.53;1.30;;;16.50;99.90;;;;;;4956522;28;20208;-82
2023/01/01 06:43:36;;;;;;;2.65;1.30;;;16.50;99.90;;;;;;4959978;28;20183;-79
2023/01/01 06:46:05;;;;;;;3.67;1.55;;;16.50;99.90;;;;;;4954368;28;20181;-82
2023/01/01 06:48:35;;;;;;;2.50;1.10;;;16.50;99.90;;;;;;4952955;28;20186;-81
2023/01/01 06:51:09;;;;;;;1.63;1.10;;;16.50;99.90;;;;;;4956379;28;20187;-82
2023/01/01 06:53:35;;;;;;;2.25;1.45;;;16.50;99.90;;;;;;4963701;28;20267;-82
2023/01/01 06:56:01;;;;;;;3.25;1.95;;;16.50;99.90;;;;;;4958672;28;20238;-78
2023/01/01 06:58:27;;;;;;;3.50;1.58;;;16.50;99.90;;;;;;4957140;28;20177;-81
2023/01/01 07:00:52;;;;;;;3.63;1.30;;;16.50;99.90;;;;;;4978072;28;20236;-80
2023/01/01 07:03:18;;;;;;;3.25;1.30;;;16.50;99.90;;;;;;4976883;28;20196;-82
2023/01/01 07:05:43;;;;;;;2.85;1.20;;;16.50;99.90;;;;;;4956592;28;20169;-80
2023/01/01 07:08:09;;;;;;;3.55;1.25;;;16.50;99.90;;;;;;4956089;28;20223;-82
2023/01/01 07:10:37;;;;;;;2.38;1.30;;;16.50;99.90;;;;;;4941652;28;20185;-81
2023/01/01 07:13:03;;;;;;;3.20;1.30;;;16.40;99.90;;;;;;4981868;28;20215;-81
2023/01/01 07:15:30;;;;;;;2.78;1.20;;;16.40;99.90;;;;;;4981975;28;20179;-81
2023/01/01 07:17:55;;;;;;;2.97;1.20;;;16.40;99.90;;;;;;4978579;28;20212;-81
2023/01/01 07:20:23;;;;;;;4.57;1.30;;;16.40;99.90;;;;;;4950999;28;20212;-80
2023/01/01 07:22:51;;;;;;;3.25;1.40;;;16.40;99.90;;;;;;4943382;29;20194;-80
2023/01/01 07:25:17;;;;;;;1.38;1.00;;;16.40;99.90;;;;;;4966700;28;20349;-82
2023/01/01 07:27:44;;;;;;;2.38;1.20;;;16.40;99.90;;;;;;4962360;28;20176;-79
2023/01/01 07:30:12;;;;;;;1.98;1.08;;;16.40;99.90;;;;;;4958546;28;20216;-83
2023/01/01 07:32:43;;;;;;;3.80;1.23;;;16.40;99.90;;;;;;4963215;28;20204;-81
2023/01/01 07:35:09;;;;;;;2.80;1.40;;;16.40;99.90;;;;;;4959418;28;20236;-82
2023/01/01 07:37:35;;;;;;;4.70;1.20;;;16.40;99.90;;;;;;4962044;28;20286;-81
2023/01/01 07:40:03;;;;;;;6.47;1.40;;;16.40;99.90;;;;;;4964160;28;20300;-83
2023/01/01 07:42:28;;;;;;;3.55;1.52;;;16.40;99.90;;;;;;4973617;28;20187;-82
2023/01/01 07:44:54;;;;;;;3.13;1.50;;;16.40;99.90;;;;;;4978822;28;20183;-81
2023/01/01 07:47:26;;;;;;;2.40;1.58;;;16.40;99.90;;;;;;4970261;28;20293;-80
2023/01/01 07:49:55;;;;;;;2.28;1.30;;;16.40;99.90;;;;;;4962760;28;20187;-81
2023/01/01 07:52:20;;;;;;;2.03;1.20;;;16.40;99.90;;;;;;4965327;28;20188;-80
2023/01/01 07:54:48;;;;;;;2.97;1.40;;;16.40;99.90;;;;;;4959301;28;20212;-80
2023/01/01 07:57:14;;;;;;;3.17;1.45;;;16.50;99.90;;;;;;4947609;28;20339;-79
2023/01/01 07:59:40;;;;;;;2.85;1.40;;;16.50;99.90;;;;;;4960443;28;20296;-82
2023/01/01 08:02:05;;;;;;;2.05;1.20;;;16.50;99.90;;;;;;4956356;28;20176;-81
2023/01/01 08:04:35;;;;;;;1.98;1.35;;;16.50;99.90;;;;;;4964811;28;20176;-81
2023/01/01 08:07:01;;;;;;;4.93;2.10;;;16.50;99.90;;;;;;4948357;28;20205;-79
2023/01/01 08:09:27;;;;;;;2.35;1.45;;;16.50;99.90;;;;;;4969279;28;20207;-79
2023/01/01 08:11:52;;;;;;;3.92;1.65;;;16.50;99.90;;;;;;4968069;28;20180;-82
2023/01/01 08:14:18;;;;;;;3.58;1.55;;;16.60;99.90;;;;;;4963401;28;20204;-80
2023/01/01 08:16:44;;;;;;;5.28;1.73;;;16.50;99.90;;;;;;4964337;28;20192;-83
2023/01/01 08:19:09;;;;;;;4.50;1.70;;;16.60;99.90;;;;;;4976293;28;20208;-73
2023/01/01 08:21:35;;;;;;;3.28;1.45;;;16.60;99.90;;;;;;4993174;28;20191;-79
2023/01/01 08:24:00;;;;;;;3.42;1.63;;;16.60;99.90;;;;;;4989683;28;20191;-79
2023/01/01 08:26:29;;;;;;;3.88;1.30;;;16.60;99.90;;;;;;4995406;28;20198;-77
2023/01/01 08:28:54;;;;;;;2.88;1.50;;;16.60;99.90;;;;;;4982568;28;20203;-76
2023/01/01 08:31:20;;;;;;;3.00;1.67;;;16.60;99.90;;;;;;4989740;28;20195;-74
2023/01/01 08:33:46;;;;;;;2.67;1.25;;;16.60;99.90;;;;;;4987903;28;20226;-77
2023/01/01 08:36:13;;;;;;;4.30;1.75;;;16.60;99.90;;;;;;4963935;28;20338;-79
2023/01/01 08:38:41;;;;;;;3.25;1.48;;;16.60;99.90;;;;;;4962272;28;20210;-79
2023/01/01 08:41:06;;;;;;;8.30;1.40;;;16.60;99.90;;;;;;4962472;28;20184;-80
2023/01/01 08:43:34;;;;;;;2.28;1.20;;;16.60;99.90;;;;;;4970588;28;20230;-77
2023/01/01 08:46:02;;;;;;;5.03;1.42;;;16.60;99.90;;;;;;4959589;28;20280;-76
2023/01/01 08:48:30;;;;;;;2.45;1.35;;;16.60;99.90;;;;;;4961553;28;20180;-79
2023/01/01 08:51:01;;;;;;;4.25;1.63;;;16.60;99.90;;;;;;4976053;28;20500;-76
2023/01/01 08:53:31;;;;;;;3.30;1.27;;;16.60;99.90;;;;;;4963499;28;20271;-78
2023/01/01 08:56:08;;;;;;;5.43;1.17;;;16.60;99.90;;;;;;4960824;28;20176;-80
2023/01/01 08:58:38;;;;;;;5.35;1.50;;;16.60;99.90;;;;;;4961229;28;20168;-79
2023/01/01 09:01:05;;;;;;;5.13;1.60;;;16.50;99.90;;;;;;4960752;28;20183;-78
2023/01/01 09:03:31;;;;;;;2.33;1.13;;;16.60;99.90;;;;;;4960335;28;20206;-78
2023/01/01 09:05:59;;;;;;;4.55;1.50;;;16.60;99.90;;;;;;4961033;28;20172;-79
2023/01/01 09:08:27;;;;;;;4.63;1.40;;;16.50;99.90;;;;;;4960931;28;20172;-80
2023/01/01 09:10:58;;;;;;;5.97;1.55;;;16.60;99.90;;;;;;4972368;28;20223;-77
2023/01/01 09:13:26;;;;;;;3.45;1.38;;;16.60;99.90;;;;;;4980208;28;20175;-78
2023/01/01 09:15:52;;;;;;;3.08;1.20;;;16.60;99.90;;;;;;4964163;28;20204;-78
2023/01/01 09:18:22;;;;;;;2.22;1.35;;;16.60;99.90;;;;;;4965806;28;20273;-77
2023/01/01 09:20:48;;;;;;;3.05;1.20;;;16.60;99.90;;;;;;4960164;28;20188;-79
2023/01/01 09:23:14;;;;;;;2.42;1.23;;;16.60;99.90;;;;;;4960764;28;20203;-80
2023/01/01 09:25:42;;;;;;;3.05;1.30;;;16.60;99.90;;;;;;4965101;28;20219;-75
2023/01/01 09:28:11;;;;;;;2.97;1.35;;;16.50;99.90;;;;;;4964764;28;20196;-75
2023/01/01 09:30:36;;;;;;;4.63;1.40;;;16.60;99.90;;;;;;4950850;28;20267;-76
2023/01/01 09:33:07;;;;;;;3.85;1.40;;;16.60;99.90;;;;;;4949637;28;20334;-76
2023/01/01 09:35:33;;;;;;;2.50;1.15;;;16.50;99.90;;;;;;4954998;28;20216;-76
2023/01/01 09:38:00;;;;;;;3.92;1.40;;;16.60;99.90;;;;;;4947516;28;20208;-77
2023/01/01 09:40:35;;;;;;;5.80;1.77;;;16.60;99.90;;;;;;4968176;28;20269;-76
2023/01/01 09:43:27;;;;;;;3.30;1.13;;;16.50;99.90;;;;;;4960090;28;20180;-78
2023/01/01 09:45:57;;;;;;;2.60;1.20;;;16.50;99.90;;;;;;4933283;28;20248;-75
2023/01/01 09:48:25;;;;;;;4.32;1.60;;;16.50;99.90;;;;;;4973471;28;20180;-76
2023/01/01 09:50:54;;;;;;;3.42;1.30;;;16.50;99.90;;;;;;4950473;28;20267;-75
2023/01/01 09:53:41;;;;;;;2.17;1.08;;;16.60;99.90;;;;;;4961604;28;20236;-75
2023/01/01 09:56:33;;;;;;;2.83;1.15;;;16.60;99.90;;;;;;4964789;28;20231;-76
2023/01/01 09:59:00;;;;;;;2.67;1.13;;;16.60;99.90;;;;;;4956339;28;20253;-76
2023/01/01 10:01:44;;;;;;;3.83;1.38;;;16.60;99.90;;;;;;4960158;28;20176;-76
2023/01/01 10:04:15;;;;;;;2.30;0.82;;;16.60;99.90;;;;;;4964651;28;20203;-75
2023/01/01 10:06:54;;;;;;;3.85;1.50;;;16.60;99.90;;;;;;4969974;28;20214;-74
2023/01/01 10:09:51;;;;;;;2.05;1.10;;;16.60;99.90;;;;;;4968274;28;20195;-75
2023/01/01 10:12:52;;;;;;;3.30;1.10;;;16.60;99.90;;;;;;4915353;28;20284;-76
2023/01/01 10:15:30;;;;;;;3.03;1.08;;;16.60;99.90;;;;;;4961145;28;20277;-74
2023/01/01 10:18:04;;;;;;;2.13;1.13;;;16.70;99.90;;;;;;4959240;28;20203;-75
2023/01/01 10:20:36;;;;;;;3.15;1.17;;;16.70;99.90;;;;;;4959193;28;20184;-74
2023/01/01 10:23:18;;;;;;;2.88;1.10;;;16.70;99.90;;;;;;4961105;28;20192;-75
2023/01/01 10:25:47;;;;;;;3.63;1.27;;;16.70;99.90;;;;;;4962199;28;20196;-74
2023/01/01 10:28:31;;;;;;;4.13;1.30;;;16.70;99.90;;;;;;4972875;28;20176;-74
2023/01/01 10:31:22;;;;;;;3.33;1.50;;;16.70;99.90;;;;;;4968682;28;20287;-75
2023/01/01 10:33:49;;;;;;;2.83;1.10;;;16.70;99.90;;;;;;4962542;28;20239;-74
2023/01/01 10:36:18;;;;;;;3.40;1.10;;;16.70;99.90;;;;;;4958437;28;20179;-75
2023/01/01 10:38:47;;;;;;;3.35;1.00;;;16.80;99.90;;;;;;4971358;28;20195;-76
2023/01/01 10:41:13;;;;;;;2.78;1.02;;;16.70;99.90;;;;;;4964222;28;20192;-76
2023/01/01 10:43:39;;;;;;;3.08;1.13;;;16.70;99.90;;;;;;4958267;28;20271;-75
2023/01/01 10:46:05;;;;;;;3.38;1.35;;;16.70;99.90;;;;;;4965763;28;20195;-76
2023/01/01 10:48:32;;;;;;;2.65;1.00;;;16.70;99.90;;;;;;4967295;28;20219;-75
2023/01/01 10:51:06;;;;;;;1.92;0.90;;;16.70;99.90;;;;;;4966470;28;20206;-75
2023/01/01 10:53:40;;;;;;;2.60;1.20;;;16.70;99.90;;;;;;4982593;28;20163;-76
2023/01/01 10:56:07;;;;;;;2.08;0.90;;;16.70;99.90;;;;;;4960221;28;20184;-77
2023/01/01 10:58:37;;;;;;;5.18;1.42;;;16.70;99.90;;;;;;4967846;28;20187;-75
2023/01/01 11:01:07;;;;;;;2.63;1.00;;;16.70;99.90;;;;;;4957174;28;20274;-76
2023/01/01 11:03:36;;;;;;;4.03;1.25;;;16.70;99.90;;;;;;4968188;28;20207;-77
2023/01/01 11:06:21;;;;;;;3.13;0.90;;;16.70;99.90;;;;;;4962830;28;20207;-75
2023/01/01 11:08:58;;;;;;;4.30;1.33;;;16.70;99.90;;;;;;4962881;28;20192;-73
2023/01/01 11:11:41;;;;;;;3.70;1.00;;;16.70;99.90;;;;;;4962851;28;20239;-76
2023/01/01 11:14:21;;;;;;;3.22;1.10;;;16.70;99.90;;;;;;4963782;28;20199;-74
2023/01/01 11:16:50;;;;;;;4.88;1.27;;;16.80;99.90;;;;;;4962464;28;20196;-74
2023/01/01 11:19:29;;;;;;;2.63;1.02;;;16.70;99.90;;;;;;4962579;28;20218;-76
2023/01/01 11:21:58;;;;;;;5.00;1.27;;;16.70;99.90;;;;;;4961442;28;20293;-76
2023/01/01 11:24:25;;;;;;;3.15;1.20;;;16.70;99.90;;;;;;4962565;28;20216;-76
2023/01/01 11:26:52;;;;;;;3.33;1.13;;;16.80;99.90;;;;;;4961593;28;20203;-76
2023/01/01 11:29:28;;;;;;;5.47;1.40;;;16.70;99.90;;;;;;4969872;28;20179;-76
2023/01/01 11:31:55;;;;;;;3.30;1.30;;;16.70;99.90;;;;;;4965625;28;20183;-75
2023/01/01 11:34:32;;;;;;;3.00;1.20;;;16.70;99.90;;;;;;4971704;28;20208;-78
2023/01/01 11:37:07;;;;;;;6.50;1.30;;;16.70;99.90;;;;;;4959512;28;20239;-77
2023/01/01 11:39:36;;;;;;;3.60;1.25;;;16.70;99.90;;;;;;4962654;28;20223;-77
2023/01/01 11:42:07;;;;;;;3.58;1.42;;;16.70;99.90;;;;;;4970402;28;20254;-76
2023/01/01 11:44:51;;;;;;;3.67;1.20;;;16.70;99.90;;;;;;4962842;28;20286;-76
2023/01/01 11:47:42;;;;;;;1.65;0.90;;;16.70;99.90;;;;;;4969687;28;20262;-74
2023/01/01 11:51:04;;;;;;;4.05;1.10;;;16.70;99.90;;;;;;4958313;28;20236;-78
2023/01/01 11:53:33;;;;;;;4.07;1.40;;;16.70;99.90;;;;;;4972373;28;20226;-74
2023/01/01 11:56:04;;;;;;;3.42;1.10;;;16.70;99.90;;;;;;4954791;28;20228;-75
2023/01/01 11:58:42;;;;;;;2.90;1.05;;;16.70;99.90;;;;;;4967554;28;20180;-74
2023/01/01 12:01:29;;;;;;;2.05;1.08;;;16.70;99.90;;;;;;4966451;28;20207;-74
2023/01/01 12:03:57;;;;;;;2.30;0.90;;;16.70;99.90;;;;;;4965164;28;20192;-75
2023/01/01 12:06:32;;;;;;;2.65;1.00;;;16.70;99.90;;;;;;4967700;28;20326;-76
2023/01/01 12:09:35;;;;;;;1.98;1.08;;;16.70;99.90;;;;;;4977167;28;20182;-75
2023/01/01 12:12:09;;;;;;;2.03;1.00;;;16.70;99.90;;;;;;4955292;28;20179;-76
2023/01/01 12:15:13;;;;;;;1.83;0.98;;;16.70;99.90;;;;;;4963932;28;20182;-76
2023/01/01 12:17:59;;;;;;;2.80;1.33;;;16.70;99.90;;;;;;4964019;28;20215;-75
2023/01/01 12:20:39;;;;;;;1.63;1.00;;;16.70;99.90;;;;;;4973949;28;20195;-75
2023/01/01 12:23:10;;;;;;;2.50;0.90;;;16.70;99.90;;;;;;4975337;28;20194;-75
2023/01/01 12:25:40;;;;;;;2.58;1.42;;;16.70;99.90;;;;;;4963483;28;20180;-75
2023/01/01 12:28:12;;;;;;;2.13;1.20;;;16.70;99.90;;;;;;4961313;28;20204;-75
2023/01/01 12:30:49;;;;;;;2.42;1.15;;;16.70;99.90;;;;;;4957934;28;20218;-74
2023/01/01 12:33:40;;;;;;;1.95;1.15;;;16.70;99.90;;;;;;4960898;28;20198;-75
2023/01/01 12:36:24;;;;;;;2.40;1.17;;;16.80;99.90;;;;;;4957933;28;20189;-74
2023/01/01 12:39:28;;;;;;;1.95;1.00;;;16.80;99.90;;;;;;4975422;28;20175;-73
2023/01/01 12:42:07;;;;;;;2.45;1.35;;;16.80;99.90;;;;;;4958965;28;20210;-75
2023/01/01 12:44:50;;;;;;;2.17;1.10;;;16.80;99.90;;;;;;4970953;28;20176;-77
2023/01/01 12:47:15;;;;;;;3.05;1.20;;;16.80;99.90;;;;;;4954828;28;20187;-76
2023/01/01 12:49:48;;;;;;;2.65;1.35;;;16.80;99.90;;;;;;4978391;28;20190;-75
2023/01/01 12:52:45;;;;;;;3.50;1.40;;;16.80;99.90;;;;;;4969762;28;20314;-74
2023/01/01 12:55:32;;;;;;;2.65;1.17;;;16.90;99.90;;;;;;4980078;28;20203;-76
2023/01/01 12:58:15;;;;;;;1.90;1.08;;;16.90;99.90;;;;;;4979817;28;20199;-74
2023/01/01 13:00:54;;;;;;;3.33;1.30;;;17.00;99.90;;;;;;4975473;28;20176;-75
2023/01/01 13:03:29;;;;;;;3.40;1.20;;;17.00;99.90;;;;;;4981252;28;20164;-76
2023/01/01 13:06:00;;;;;;;2.40;1.20;;;17.00;99.90;;;;;;4980283;28;20167;-75
2023/01/01 13:08:26;;;;;;;2.90;1.52;;;16.90;99.90;;;;;;4974473;28;20214;-75
2023/01/01 13:11:00;;;;;;;3.25;1.83;;;17.00;99.90;;;;;;4959520;28;20195;-74
2023/01/01 13:13:27;;;;;;;3.47;1.60;;;17.00;99.90;;;;;;4966958;28;20191;-74
2023/01/01 13:20:04;;;;;;;3.70;1.63;;;16.90;99.90;;;;;;4965766;28;20188;-75
2023/01/01 13:26:19;;;;;;;4.55;1.48;;;17.00;99.90;;;;;;4939718;28;20255;-75
2023/01/01 13:28:57;;;;;;;5.30;1.60;;;17.00;99.90;;;;;;4958226;28;20196;-75
2023/01/01 13:31:38;;;;;;;3.53;1.30;;;17.00;99.90;;;;;;4963691;28;20191;-76
2023/01/01 13:34:39;;;;;;;2.45;1.10;;;17.00;99.90;;;;;;4954040;28;20169;-75
2023/01/01 13:37:13;;;;;;;2.58;1.17;;;17.00;99.90;;;;;;4954525;28;20293;-74
2023/01/01 13:39:57;;;;;;;1.50;0.98;;;17.00;99.90;;;;;;4978405;28;20179;-75
2023/01/01 13:42:42;;;;;;;3.10;1.20;;;17.00;99.90;;;;;;4972828;28;20190;-78
2023/01/01 13:45:15;;;;;;;2.80;1.08;;;16.90;99.90;;;;;;4991959;28;20187;-75
2023/01/01 13:48:10;;;;;;;3.28;1.75;;;16.90;99.90;;;;;;4980930;28;20199;-75
2023/01/01 13:51:03;;;;;;;3.08;1.95;;;16.90;99.90;;;;;;4944501;28;20180;-76